Flight Track Log - Related Links

Times and Time Zones

All times are in EDT time to prevent confusion due to time zone crossing. See the RPA4886 flight status page for this flight to view local times or setup timezone preferences in your user account.

Time Position Orientation Groundspeed Altitude Reporting Facility
EDT Latitude Longitude Course Direction KTS MPH feet Rate Location/Type
Sat 10:36:39 AM 36.9392 -76.1636 32° Northeast 208 239 2,700  Level Washington Center
Sat 10:37:37 AM 36.9911 -76.1925 336° Northwest 187 215 4,600 1,932 Climbing Washington Center
Sat 10:38:00 AM 37.0358 -76.4921 300° West  Level FlightAware Approximate
Sat 10:38:37 AM 37.0261 -76.2761 298° West 214 246 6,500  Level Washington Center
Sat 10:39:00 AM 37.0824 -76.5946 300° West  Level FlightAware Approximate
Sat 10:39:37 AM 37.0547 -76.3647 292° West 240 276 8,800  Level Washington Center
Sat 10:40:00 AM 37.1290 -76.6971 300° West  Level FlightAware Approximate
Sat 10:40:38 AM 37.0897 -76.4564 296° West 267 307 10,500  Level Washington Center
Sat 10:41:38 AM 37.1222 -76.5503 293° West 292 336 12,200 1,636 Climbing Washington Center
Sat 10:42:39 AM 37.1592 -76.6472 296° West 305 351 13,800 1,563 Climbing Washington Center
Sat 10:43:37 AM 37.1936 -76.7417 295° West 305 351 15,300 1,475 Climbing Washington Center
Sat 10:44:37 AM 37.2281 -76.8386 294° West 305 351 16,700 1,350 Climbing Washington Center
Sat 10:45:37 AM 37.2647 -76.9411 294° West 305 351 18,000 992 Climbing Washington Center
Sat 10:46:38 AM 37.2928 -77.0250 293° West 305 351 18,700 885 Climbing Washington Center
Sat 10:47:39 AM 37.3586 -77.0969 319° Northwest 278 320 19,800 1,059 Climbing Washington Center
Sat 10:48:37 AM 37.4300 -77.0719 16° North 258 297 20,800 605 Climbing Washington Center
Sat 10:49:38 AM 37.5097 -77.0317 22° Northeast 296 341 21,000 98 Climbing Washington Center
Sat 10:50:39 AM 37.5875 -76.9756 30° Northeast 307 353 21,000  Level Washington Center
Sat 10:51:39 AM 37.6717 -76.9219 27° Northeast 323 372 21,000  Level Washington Center
Sat 10:52:38 AM 37.7597 -76.8658 27° Northeast 333 383 21,000  Level Washington Center
Sat 10:53:38 AM 37.8439 -76.8092 28° Northeast 338 389 21,000  Level Washington Center
Sat 10:54:38 AM 37.9300 -76.7528 27° Northeast 338 389 21,000  Level Washington Center
Sat 10:55:39 AM 38.0139 -76.6986 27° Northeast 338 389 21,000  Level Washington Center
Sat 10:56:39 AM 38.0997 -76.6419 27° Northeast 338 389 21,000  Level Washington Center
Sat 10:57:37 AM 38.1836 -76.5850 28° Northeast 338 389 21,000 -750 Level Washington Center
Sat 10:58:39 AM 38.2697 -76.5306 26° Northeast 338 389 19,500 -1,600 Descending Washington Center
Sat 10:59:37 AM 38.3533 -76.4761 27° Northeast 338 389 17,800 -1,613 Descending Washington Center
Sat 11:00:38 AM 38.4414 -76.4186 27° Northeast 338 389 16,300 -1,721 Descending Washington Center
Sat 11:01:39 AM 38.5336 -76.3561 28° Northeast 338 389 14,300 -1,513 Descending Washington Center
Sat 11:02:37 AM 38.5986 -76.3117 28° Northeast 338 389 13,300 -655 Descending Washington Center
Sat 11:03:38 AM 38.6925 -76.2806 15° North 305 351 13,000 -344 Descending Washington Center
Sat 11:04:39 AM 38.7803 -76.2519 14° North 305 351 12,600 -694 Descending Washington Center
Sat 11:05:39 AM 38.8678 -76.2236 14° North 316 364 11,600 -814 Descending Washington Center
Sat 11:06:37 AM 38.9578 -76.2003 11° North 323 372 11,000 -303 Descending Washington Center
Sat 11:07:38 AM 39.0453 -76.1717 14° North 323 372 11,000 -49 Level Washington Center
Sat 11:08:39 AM 39.1267 -76.1428 15° North 323 372 10,900 -50 Descending Washington Center
Sat 11:09:37 AM 39.2122 -76.1139 15° North 323 372 10,900  Level Washington Center
Sat 11:10:38 AM 39.2939 -76.0717 22° Northeast 318 366 10,900 75 Level Washington Center
Sat 11:12:17 AM 39.4000 -75.9333 45° Northeast 312 359 11,100 73 Climbing Philadelphia TRACON
Sat 11:13:23 AM 39.4833 -75.8500 38° Northeast 312 359 11,100  Level Philadelphia TRACON
Sat 11:14:23 AM 39.5333 -75.7667 52° Northeast 311 358 11,100 -53 Level Philadelphia TRACON
Sat 11:15:16 AM 39.6000 -75.7000 38° Northeast 312 359 11,000  Descending Philadelphia TRACON
Sat 11:16:17 AM 39.6667 -75.6333 38° Northeast 311 358 11,100 50 Climbing Philadelphia TRACON
Sat 11:17:17 AM 39.7000 -75.5333 67° East 309 356 11,100  Level Philadelphia TRACON
Sat 11:18:17 AM 39.7333 -75.4333 67° East 310 357 11,100 -250 Level Philadelphia TRACON
Sat 11:19:17 AM 39.7667 -75.3333 67° East 300 345 10,600 -500 Descending Philadelphia TRACON
Sat 11:20:17 AM 39.7833 -75.2333 78° East 264 304 10,100 -500 Descending Philadelphia TRACON
Sat 11:21:17 AM 39.8167 -75.1500 62° Northeast 252 290 9,600 -500 Descending Philadelphia TRACON
Sat 11:22:17 AM 39.8333 -75.0667 75° East 254 292 9,100 -500 Descending Philadelphia TRACON
Sat 11:23:17 AM 39.8667 -74.9833 62° Northeast 258 297 8,600 -500 Descending Philadelphia TRACON
Sat 11:24:17 AM 39.9167 -74.9167 46° Northeast 257 296 8,100 -500 Descending Philadelphia TRACON
Sat 11:25:17 AM 39.9667 -74.8500 46° Northeast 250 288 7,600 -397 Descending Philadelphia TRACON
Sat 11:26:48 AM 40.0333 -74.7500 49° Northeast 241 277 7,100 -199 Descending New York TRACON
Sat 11:27:48 AM 40.0833 -74.6833 46° Northeast 246 283 7,100  Level New York TRACON
Sat 11:28:48 AM 40.1333 -74.6333 37° Northeast 254 292 7,100  Level New York TRACON
Sat 11:29:48 AM 40.2000 -74.5833 30° Northeast 252 290 7,100 -50 Level New York TRACON
Sat 11:30:48 AM 40.2500 -74.5333 37° Northeast 252 290 7,000 -550 Descending New York TRACON
Sat 11:31:48 AM 40.3000 -74.4833 37° Northeast 242 278 6,000 -1,000 Descending New York TRACON
Sat 11:32:48 AM 40.3500 -74.4333 37° Northeast 234 269 5,000 -1,100 Descending New York TRACON
Sat 11:33:48 AM 40.4167 -74.3833 30° Northeast 237 273 3,800 -1,050 Descending New York TRACON
Sat 11:34:48 AM 40.4667 -74.3333 37° Northeast 235 270 2,900 -429 Descending New York TRACON
Sat 11:35:54 AM 40.5167 -74.2833 37° Northeast 232 267 2,900 -143 Level New York TRACON
Sat 11:36:54 AM 40.5667 -74.2500 27° Northeast 177 204 2,600 -650 Descending New York TRACON
Sat 11:37:54 AM 40.6167 -74.2167 27° Northeast 179 206 1,600 -900 Descending New York TRACON
Sat 11:38:54 AM 40.6500 -74.2000 21° North 134 154 800 -800 Descending New York TRACON

Login

Don't have an account? Register now (free) for customized features, flight alerts, and more!